Aviation Digital Data Service (ADDS)

Output produced by METARs form (0152 UTC 02 September 2014)
found at http://www.aviationweather.gov/adds/metars/
 
KALB 012320Z 0200/0224 15005KT P6SM FEW050 SCT100 
     FM020300 VRB03KT 5SM BR FEW050 SCT100 SCT250 
     TEMPO 0203/0206 1SM BR BKN002 
     FM020600 VRB02KT 3/4SM BR BKN002 
     FM021300 20005KT 6SM BR VCFG SCT002 BKN025 BKN100 
     FM021500 19005KT 6SM HZ BKN050 BKN100 
     PROB30 0215/0221 3SM -TSRA BR BKN045CB